Not logged in
PANGAEA.
Data Publisher for Earth & Environmental Science

Behrens, Klaus (2017): Meteorological synoptical observations from station Lindenberg (2013-04) [dataset]. Meteorologisches Observatorium Potsdam, PANGAEA, https://doi.org/10.1594/PANGAEA.880698

Always quote citation above when using data! You can download the citation in several formats below.

Published: 2017-09-18DOI registered: 2017-10-16

RIS CitationBibTeX Citation ShareShow MapGoogle Earth

Other version:
Behrens, Klaus (2017): BSRN Station-to-archive file for station Lindenberg (2013-04) [dataset]. ftp://ftp.bsrn.awi.de/lin/lin0413.dat.gz
Coverage:
Latitude: 52.210000 * Longitude: 14.122000
Date/Time Start: 2013-04-01T00:00:00 * Date/Time End: 2013-04-30T23:00:00
Minimum Elevation: 125.0 m * Maximum Elevation: 125.0 m
Event(s):
LIN (Lindenberg) * Latitude: 52.210000 * Longitude: 14.122000 * Date/Time: 1994-09-01T00:00:00 * Elevation: 125.0 m * Location: Germany * Method/Device: Monitoring station (MONS) * Comment: BSRN station no: 12; Surface type: cultivated; Topography type: hilly, rural; Horizon: doi:10.1594/PANGAEA.669521; Station scientist: Stefan Wacker (Stefan.Wacker@dwd.de)
Parameter(s):
#NameShort NameUnitPrincipal InvestigatorMethod/DeviceComment
DATE/TIMEDate/TimeBehrens, KlausGeocode
Total cloud amountNcodeBehrens, KlausVisual observation
Wind directiondddegBehrens, KlausAnemometer
Wind speedffm/sBehrens, KlausAnemometer
Temperature, airTTT°CBehrens, KlausThermometer
Dew/frost pointTdTdTd°CBehrens, KlausHygrometer (HYGRO)
Station pressurePoPoPoPohPaBehrens, KlausBarometer (BARO)
Pressure, atmosphericPPPPhPaBehrens, KlausBarometer (BARO)
Present weatherwwcodeBehrens, KlausVisual observation
10 Past weather1W1codeBehrens, KlausVisual observation
11 Past weather2W2codeBehrens, KlausVisual observation
12 CodeCodeBehrens, KlausYYGG9 IIiii Nddff 1SnTTT 2SnTdTdTd 3P0P0P0 4PPPP 7wwW1W2 8NhClCmCh 333 8NsChshs 8NsChshs 8NsChshs
Size:
6396 data points

Data

Download dataset as tab-delimited text — use the following character encoding:


Date/Time

N [code]

dd [deg]

ff [m/s]

TTT [°C]

TdTdTd [°C]

PoPoPoPo [hPa]

PPPP [hPa]

ww [code]
10 
W1 [code]
11 
W2 [code]
12 
Code
2013-04-01T00:0083402-1.5-2.69961009708701009 10393 83402 11015 21026 39964 40094 77087 8////
2013-04-01T01:0083302-1.6-2.79961009707701019 10393 83302 11016 21027 39962 40092 77077 8////
2013-04-01T02:0083202-1.6-2.69961009717701029 10393 83202 11016 21026 39962 40092 77177 8////
2013-04-01T03:0083303-1.5-2.29961009717201039 10393 83303 11015 21022 39962 40092 77172 8////
2013-04-01T04:0083303-1.5-2.29961009717701049 10393 83303 11015 21022 39960 40090 77177 8////
2013-04-01T05:0083203-1.6-2.39961009717701059 10393 83203 11016 21023 39960 40090 77177 8////
2013-04-01T06:0083303-1.5-2.39961009717201069 10393 83303 11015 21023 39961 40091 77172 8////
2013-04-01T07:0073403-0.7-2.69961009707701079 10393 73403 11007 21026 39963 40093 77077 8////
2013-04-01T08:00735030.3-3.49961010702201089 10393 73503 10003 21034 39965 40095 77022 8////
2013-04-01T09:00735040.6-3.89971010607201099 10393 73504 10006 21038 39968 40098 76072 8////
2013-04-01T10:00735030.8-3.69971010808601109 10393 73503 10008 21036 39971 40100 78086 8////
2013-04-01T11:00834031.5-2.79971010852201119 10393 83403 10015 21027 39973 40102 78522 8////
2013-04-01T12:00833030.6-1.99981011858701129 10393 83303 10006 21019 39978 40108 78587 8////
2013-04-01T13:00835021.4-2.39981011858801139 10393 83502 10014 21023 39978 40107 78588 8////
2013-04-01T14:00832030.9-2.19981011852201149 10393 83203 10009 21021 39982 40112 78522 8////
2013-04-01T15:00734032.1-4.89981011268201159 10393 73403 10021 21048 39982 40111 72682 8////
2013-04-01T16:00735021.8-5.2998101101169 10393 73502 10018 21052 39985 40114 7//// 8////
2013-04-01T17:00735021.4-5.3999101201179 10393 73502 10014 21053 39987 40116 7//// 8////
2013-04-01T18:00736020.3-4.89991012268201189 10393 73602 10003 21048 39992 40122 72682 8////
2013-04-01T19:008102-0.1-3.91000101301199 10393 80102 11001 21039 39999 40129 7//// 8////
2013-04-01T20:008102-0.7-3.81000101301209 10393 80102 11007 21038 30000 40131 7//// 8////
2013-04-01T21:008202-0.5-3.61000101301219 10393 80202 11005 21036 30000 40130 7//// 8////
2013-04-01T22:006202-1.5-3.81000101301229 10393 60202 11015 21038 30002 40133 7//// 8////
2013-04-01T23:000302-2.6-3.91000101401239 10393 00302 11026 21039 30003 40135 7//// 8////
2013-04-02T00:003302-3.1-4.11001101402009 10393 30302 11031 21041 30006 40138 7//// 8////
2013-04-02T01:002202-3.7-4.51001101402019 10393 20202 11037 21045 30006 40138 7//// 8////
2013-04-02T02:002503-3.1-3.81001101402029 10393 20503 11031 21038 30007 40139 7//// 8////
2013-04-02T03:002302-4.4-4.910011014101102039 10393 20302 11044 21049 30009 40142 71011 8////
2013-04-02T04:007302-4.2-4.210011014101102049 10393 70302 11042 21042 30010 40142 71011 8////
2013-04-02T05:006602-2.8-3.710011014102202059 10393 60602 11028 21037 30011 40143 71022 8////
2013-04-02T06:005403-2.8-4.010021015101102069 10393 50403 11028 21040 30015 40147 71011 8////
2013-04-02T07:006503-1.4-4.01002101502079 10393 60503 11014 21040 30019 40150 7//// 8////
2013-04-02T08:003703-0.6-3.61002101502089 10393 30703 11006 21036 30022 40153 7//// 8////
2013-04-02T09:0046030.5-4.01002101502099 10393 40603 10005 21040 30024 40154 7//// 8////
2013-04-02T10:0077031.6-4.41003101602109 10393 70703 10016 21044 30027 40157 7//// 8////
2013-04-02T11:0087032.1-4.61003101602119 10393 80703 10021 21046 30029 40159 7//// 8////
2013-04-02T12:0075032.1-4.61003101602129 10393 70503 10021 21046 30031 40161 7//// 8////
2013-04-02T13:0086032.3-5.41003101602139 10393 80603 10023 21054 30031 40161 7//// 8////
2013-04-02T14:0075032.5-5.01003101602149 10393 70503 10025 21050 30030 40159 7//// 8////
2013-04-02T15:0086042.2-5.11003101602159 10393 80604 10022 21051 30031 40161 7//// 8////
2013-04-02T16:0086041.9-5.21004101602169 10393 80604 10019 21052 30035 40165 7//// 8////
2013-04-02T17:0086031.6-5.11004101702179 10393 80603 10016 21051 30039 40169 7//// 8////
2013-04-02T18:0087031.3-5.61004101802189 10393 80703 10013 21056 30045 40175 7//// 8////
2013-04-02T19:0088031.1-6.11005101802199 10393 80803 10011 21061 30049 40179 7//// 8////
2013-04-02T20:0088020.9-5.91005101802209 10393 80802 10009 21059 30053 40184 7//// 8////
2013-04-02T21:0085020.6-5.51005101802219 10393 80502 10006 21055 30053 40184 7//// 8////
2013-04-02T22:0085030.6-5.11005101802229 10393 80503 10006 21051 30052 40183 7//// 8////
2013-04-02T23:0086030.4-4.51005101802239 10393 80603 10004 21045 30054 40185 7//// 8////
2013-04-03T00:0086030.3-4.21006101903009 10393 80603 10003 21042 30056 40187 7//// 8////
2013-04-03T01:0085020.2-3.81006101903019 10393 80502 10002 21038 30057 40188 7//// 8////
2013-04-03T02:0085030.1-4.41006101903029 10393 80503 10001 21044 30058 40189 7//// 8////
2013-04-03T03:0085030.0-4.51006101903039 10393 80503 10000 21045 30058 40189 7//// 8////
2013-04-03T04:008403-0.1-4.61006101903049 10393 80403 11001 21046 30058 40189 7//// 8////
2013-04-03T05:008403-0.3-4.61006101903059 10393 80403 11003 21046 30058 40189 7//// 8////
2013-04-03T06:008402-0.3-4.81006101903069 10393 80402 11003 21048 30061 40192 7//// 8////
2013-04-03T07:008402-0.3-5.31006101903079 10393 80402 11003 21053 30063 40194 7//// 8////
2013-04-03T08:0085030.0-5.11007102003089 10393 80503 10000 21051 30066 40197 7//// 8////
2013-04-03T09:0086040.5-4.91007102003099 10393 80604 10005 21049 30068 40199 7//// 8////
2013-04-03T10:0085040.8-5.11007102003109 10393 80504 10008 21051 30066 40197 7//// 8////
2013-04-03T11:0086031.2-5.51006102003119 10393 80603 10012 21055 30064 40195 7//// 8////
2013-04-03T12:0085031.2-5.01006101903129 10393 80503 10012 21050 30061 40191 7//// 8////
2013-04-03T13:0087041.2-4.81006101903139 10393 80704 10012 21048 30060 40190 7//// 8////
2013-04-03T14:0087051.2-4.41006101903149 10393 80705 10012 21044 30058 40188 7//// 8////
2013-04-03T15:0086030.9-4.21006101903159 10393 80603 10009 21042 30057 40188 7//// 8////
2013-04-03T16:0084031.0-4.11005101803169 10393 80403 10010 21041 30053 40183 7//// 8////
2013-04-03T17:0086031.0-4.71005101803179 10393 80603 10010 21047 30053 40183 7//// 8////
2013-04-03T18:0087031.1-5.11006101803189 10393 80703 10011 21051 30055 40185 7//// 8////
2013-04-03T19:0087031.0-5.01006101903199 10393 80703 10010 21050 30055 40186 7//// 8////
2013-04-03T20:0086030.9-4.91005101803209 10393 80603 10009 21049 30052 40183 7//// 8////
2013-04-03T21:0086030.8-4.61005101803219 10393 80603 10008 21046 30046 40176 7//// 8////
2013-04-03T22:0086030.7-4.51004101703229 10393 80603 10007 21045 30043 40173 7//// 8////
2013-04-03T23:0076030.2-4.51004101703239 10393 70603 10002 21045 30042 40173 7//// 8////
2013-04-04T00:006603-0.1-4.41004101704009 10393 60603 11001 21044 30040 40171 7//// 8////
2013-04-04T01:008502-0.4-4.21004101704019 10393 80502 11004 21042 30035 40166 7//// 8////
2013-04-04T02:008102-0.5-3.71003101604029 10393 80102 11005 21037 30031 40162 7//// 8////
2013-04-04T03:008202-0.6-3.81003101604039 10393 80202 11006 21038 30026 40157 7//// 8////
2013-04-04T04:008302-0.5-4.21002101504049 10393 80302 11005 21042 30023 40154 7//// 8////
2013-04-04T05:008202-0.6-3.91002101504059 10393 80202 11006 21039 30021 40152 7//// 8////
2013-04-04T06:008202-0.5-3.81002101504069 10393 80202 11005 21038 30021 40152 7//// 8////
2013-04-04T07:008303-0.5-3.01002101504079 10393 80303 11005 21030 30020 40151 7//// 8////
2013-04-04T08:008202-0.1-2.91002101504089 10393 80202 11001 21029 30019 40150 7//// 8////
2013-04-04T09:0081030.4-2.81002101504099 10393 80103 10004 21028 30018 40148 7//// 8////
2013-04-04T10:0081020.7-2.81002101504109 10393 80102 10007 21028 30017 40147 7//// 8////
2013-04-04T11:0081021.5-2.61002101404119 10393 80102 10015 21026 30015 40145 7//// 8////
2013-04-04T12:00736022.1-2.81002101404129 10393 73602 10021 21028 30015 40144 7//// 8////
2013-04-04T13:00736022.7-2.71001101404139 10393 73602 10027 21027 30011 40140 7//// 8////
2013-04-04T14:0081022.8-2.31001101404149 10393 80102 10028 21023 30008 40137 7//// 8////
2013-04-04T15:0082032.7-2.31000101304159 10393 80203 10027 21023 30004 40133 7//// 8////
2013-04-04T16:0084012.7-2.31000101304169 10393 80401 10027 21023 30003 40132 7//// 8////
2013-04-04T17:0083012.3-2.31000101304179 10393 80301 10023 21023 30001 40130 7//// 8////
2013-04-04T18:0083011.8-1.91000101304189 10393 80301 10018 21019 30002 40131 7//// 8////
2013-04-04T19:0082011.3-1.81000101304199 10393 80201 10013 21018 30001 40131 7//// 8////
2013-04-04T20:0081011.0-1.51000101304209 10393 80101 10010 21015 30000 40130 7//// 8////
2013-04-04T21:0083010.8-1.51000101304219 10393 80301 10008 21015 39998 40128 7//// 8////
2013-04-04T22:0083010.4-1.61000101304229 10393 80301 10004 21016 39997 40127 7//// 8////
2013-04-04T23:00836010.4-1.41000101304239 10393 83601 10004 21014 39997 40127 7//// 8////
2013-04-05T00:0081020.2-1.4999101205009 10393 80102 10002 21014 39992 40122 7//// 8////
2013-04-05T01:0081020.1-1.3998101105019 10393 80102 10001 21013 39982 40112 7//// 8////
2013-04-05T02:0081020.0-1.3998101105029 10393 80102 10000 21013 39979 40109 7//// 8////
2013-04-05T03:0082020.0-1.1998101105039 10393 80202 10000 21011 39977 40107 7//// 8////
2013-04-05T04:008102-0.1-1.1997101005049 10393 80102 11001 21011 39972 40102 7//// 8////
2013-04-05T05:008202-0.1-1.09971010102205059 10393 80202 11001 21010 39969 40099 71022 8////
2013-04-05T06:0081010.1-0.99971010102205069 10393 80101 10001 21009 39971 40101 71022 8////
2013-04-05T07:0082010.4-0.99971010702205079 10393 80201 10004 21009 39973 40103 77022 8////
2013-04-05T08:0083010.8-0.89981010707705089 10393 80301 10008 21008 39975 40104 77077 8////
2013-04-05T09:00836011.4-0.49971010707205099 10393 83601 10014 21004 39973 40102 77072 8////
2013-04-05T10:00836021.9-1.09971010222205109 10393 83602 10019 21010 39973 40102 72222 8////
2013-04-05T11:00836022.3-1.1997101005119 10393 83602 10023 21011 39972 40101 7//// 8////
2013-04-05T12:00836022.7-1.19971010227205129 10393 83602 10027 21011 39971 40100 72272 8////
2013-04-05T13:0081022.6-0.7997101005139 10393 80102 10026 21007 39971 40100 7//// 8////
2013-04-05T14:0081022.6-0.19971010707205149 10393 80102 10026 21001 39970 40099 77072 8////
2013-04-05T15:00836022.20.69971010687205159 10393 83602 10022 20006 39972 40101 76872 8////
2013-04-05T16:00836022.20.69981010687705169 10393 83602 10022 20006 39975 40104 76877 8////
2013-04-05T17:00835022.00.49981011607705179 10393 83502 10020 20004 39978 40107 76077 8////
2013-04-05T18:00835021.60.59981011607605189 10393 83502 10016 20005 39983 40112 76076 8////
2013-04-05T19:00836021.40.59991012606605199 10393 83602 10014 20005 39990 40119 76066 8////
2013-04-05T20:00836021.30.49991012216605209 10393 83602 10013 20004 39993 40122 72166 8////
2013-04-05T21:0081021.20.210001013216205219 10393 80102 10012 20002 39997 40127 72162 8////
2013-04-05T22:0081020.90.010001013606205229 10393 80102 10009 20000 30000 40130 76062 8////
2013-04-05T23:00836020.7-0.110001013216605239 10393 83602 10007 21001 30002 40132 72166 8////
2013-04-06T00:00836020.6-0.210001013606206009 10393 83602 10006 21002 30004 40134 76062 8////
2013-04-06T01:00836020.4-0.310011014606606019 10393 83602 10004 21003 30006 40136 76066 8////
2013-04-06T02:00836020.3-0.410011014216606029 10393 83602 10003 21004 30008 40138 72166 8////
2013-04-06T03:00836020.3-0.510011014216206039 10393 83602 10003 21005 30009 40139 72162 8////
2013-04-06T04:0081020.3-0.410011014212206049 10393 80102 10003 21004 30012 40142 72122 8////
2013-04-06T05:0081020.2-0.410021015102206059 10393 80102 10002 21004 30018 40148 71022 8////
2013-04-06T06:0081020.3-0.710021015606206069 10393 80102 10003 21007 30023 40153 76062 8////
2013-04-06T07:00836020.6-0.610031016216606079 10393 83602 10006 21006 30031 40161 72166 8////
2013-04-06T08:00836021.1-0.810041016212206089 10393 83602 10011 21008 30035 40165 72122 8////
2013-04-06T09:00836021.5-1.110041017216206099 10393 83602 10015 21011 30040 40170 72162 8////
2013-04-06T10:00836022.1-0.810041017212206109 10393 83602 10021 21008 30044 40174 72122 8////
2013-04-06T11:00835022.7-1.01005101806119 10393 83502 10027 21010 30048 40178 7//// 8////
2013-04-06T12:00836023.2-1.41005101826206129 10393 83602 10032 21014 30050 40179 70262 8////
2013-04-06T13:00836023.5-1.81005101806139 10393 83602 10035 21018 30052 40181 7//// 8////
2013-04-06T14:00833023.7-1.41005101806149 10393 83302 10037 21014 30051 40180 7//// 8////
2013-04-06T15:00835023.6-1.110051018702206159 10393 83502 10036 21011 30052 40181 77022 8////
2013-04-06T16:00831013.9-1.110051018222206169 10393 83101 10039 21011 30054 40183 72222 8////
2013-04-06T17:00832023.4-0.710061018216206179 10393 83202 10034 21007 30056 40185 72162 8////
2013-04-06T18:00827022.8-0.910061019217606189 10393 82702 10028 21009 30061 40191 72176 8////
2013-04-06T19:00828032.6-1.210071020212206199 10393 82803 10026 21012 30069 40199 72122 8////
2013-04-06T20:00824022.5-1.410071020212206209 10393 82402 10025 21014 30073 40203 72122 8////
2013-04-06T21:00629021.5-1.210081021216206219 10393 62902 10015 21012 30077 40207 72162 8////
2013-04-06T22:00429020.8-1.11008102106229 10393 42902 10008 21011 30079 40210 7//// 8////
2013-04-06T23:0032903-0.1-1.31008102106239 10393 32903 11001 21013 30079 40210 7//// 8////
2013-04-07T00:0012903-0.8-1.61008102116107009 10393 12903 11008 21016 30079 40211 70161 8////
2013-04-07T01:0013003-1.3-1.81008102107019 10393 13003 11013 21018 30078 40210 7//// 8////
2013-04-07T02:0003202-2.2-2.210081021100007029 10393 03202 11022 21022 30079 40211 71000 8////
2013-04-07T03:0003102-2.7-3.010081021100007039 10393 03102 11027 21030 30078 40211 71000 8////
2013-04-07T04:0013202-2.6-2.810081021110007049 10393 13202 11026 21028 30079 40212 71100 8////
2013-04-07T05:0013003-3.0-3.310081021110007059 10393 13003 11030 21033 30080 40213 71100 8////
2013-04-07T06:0013102-2.3-2.310081022100007069 10393 13102 11023 21023 30083 40215 71000 8////
2013-04-07T07:00029020.4-2.91008102207079 10393 02902 10004 21029 30084 40215 7//// 8////
2013-04-07T08:00129023.0-3.81008102107089 10393 12902 10030 21038 30084 40214 7//// 8////
2013-04-07T09:00129045.1-5.31008102107099 10393 12904 10051 21053 30084 40213 7//// 8////
2013-04-07T10:00129036.6-4.41008102107109 10393 12903 10066 21044 30081 40209 7//// 8////
2013-04-07T11:00329046.8-5.11008102007119 10393 32904 10068 21051 30075 40203 7//// 8////
2013-04-07T12:00229027.6-6.31007102007129 10393 22902 10076 21063 30068 40196 7//// 8////
2013-04-07T13:00228048.4-6.01006101907139 10393 22804 10084 21060 30063 40190 7//// 8////
2013-04-07T14:00229048.5-7.91006101807149 10393 22904 10085 21079 30056 40183 7//// 8////
2013-04-07T15:00426048.4-5.81005101807159 10393 42604 10084 21058 30053 40180 7//// 8////
2013-04-07T16:00731027.8-5.310051018141107169 10393 73102 10078 21053 30051 40178 71411 8////
2013-04-07T17:0063017.0-4.610051018252207179 10393 60301 10070 21046 30049 40177 72522 8////
2013-04-07T18:0061015.7-4.01005101818107189 10393 60101 10057 21040 30047 40175 70181 8////
2013-04-07T19:0054014.2-4.61005101807199 10393 50401 10042 21046 30046 40175 7//// 8////
2013-04-07T20:00719013.8-4.21004101707209 10393 71901 10038 21042 30044 40173 7//// 8////
2013-04-07T21:00624013.2-4.01004101707219 10393 62401 10032 21040 30040 40169 7//// 8////
2013-04-07T22:00024032.0-3.71004101707229 10393 02403 10020 21037 30036 40166 7//// 8////
2013-04-07T23:00023021.3-4.21003101607239 10393 02302 10013 21042 30034 40164 7//// 8////
2013-04-08T00:00023020.5-3.91003101608009 10393 02302 10005 21039 30029 40159 7//// 8////
2013-04-08T01:0002403-0.3-3.81003101608019 10393 02403 11003 21038 30026 40157 7//// 8////
2013-04-08T02:0002503-0.2-3.91002101508029 10393 02503 11002 21039 30020 40151 7//// 8////
2013-04-08T03:0002302-0.9-4.11002101508039 10393 02302 11009 21041 30016 40147 7//// 8////
2013-04-08T04:0022202-1.1-4.31001101408049 10393 22202 11011 21043 30010 40141 7//// 8////
2013-04-08T05:0062202-2.3-4.41001101408059 10393 62202 11023 21044 30007 40138 7//// 8////
2013-04-08T06:00720010.0-3.71001101408069 10393 72001 10000 21037 30006 40136 7//// 8////
2013-04-08T07:00718011.6-2.41000101408079 10393 71801 10016 21024 30005 40135 7//// 8////
2013-04-08T08:00621014.4-2.91000101308089 10393 62101 10044 21029 30002 40130 7//// 8////
2013-04-08T09:00530026.6-3.61000101308099 10393 53002 10066 21036 30002 40129 7//// 8////
2013-04-08T10:00613037.5-5.01000101208109 10393 61303 10075 21050 39997 40124 7//// 8////
2013-04-08T11:00715037.7-5.4999101208119 10393 71503 10077 21054 39993 40120 7//// 8////
2013-04-08T12:00810018.3-6.1999101108129 10393 81001 10083 21061 39987 40113 7//// 8////
2013-04-08T13:00815028.8-6.3998101108139 10393 81502 10088 21063 39982 40108 7//// 8////
2013-04-08T14:00710028.6-6.5998101008149 10393 71002 10086 21065 39978 40104 7//// 8////
2013-04-08T15:0086038.2-4.5997101008159 10393 80603 10082 21045 39971 40097 7//// 8////
2013-04-08T16:0057048.1-3.0997100908169 10393 50704 10081 21030 39966 40092 7//// 8////
2013-04-08T17:0067047.3-3.2996100908179 10393 60704 10073 21032 39965 40091 7//// 8////
2013-04-08T18:0056045.6-1.5997100908189 10393 50604 10056 21015 39966 40093 7//// 8////
2013-04-08T19:0076044.6-1.6997101008199 10393 70604 10046 21016 39967 40095 7//// 8////
2013-04-08T20:0078044.0-1.9997101008209 10393 70804 10040 21019 39968 40096 7//// 8////
2013-04-08T21:0079043.5-1.7997101008219 10393 70904 10035 21017 39970 40098 7//// 8////
2013-04-08T22:0089043.1-1.4997101008229 10393 80904 10031 21014 39969 40097 7//// 8////
2013-04-08T23:0079042.7-1.3996100908239 10393 70904 10027 21013 39965 40093 7//// 8////
2013-04-09T00:0079042.3-1.3996100909009 10393 70904 10023 21013 39961 40090 7//// 8////
2013-04-09T01:0089042.0-1.7996100809019 10393 80904 10020 21017 39956 40085 7//// 8////
2013-04-09T02:0079041.8-1.9995100809029 10393 70904 10018 21019 39954 40083 7//// 8////
2013-04-09T03:0077031.6-1.8995100809039 10393 70703 10016 21018 39951 40080 7//// 8////
2013-04-09T04:0088041.3-1.9995100809049 10393 80804 10013 21019 39950 40079 7//// 8////
2013-04-09T05:0089041.1-1.8995100809059 10393 80904 10011 21018 39950 40079 7//// 8////
2013-04-09T06:00710031.4-1.5995100809069 10393 71003 10014 21015 39953 40082 7//// 8////
2013-04-09T07:00710032.2-1.5995100809079 10393 71003 10022 21015 39954 40083 7//// 8////
2013-04-09T08:00710043.8-1.6995100809089 10393 71004 10038 21016 39952 40080 7//// 8////
2013-04-09T09:00711054.4-1.8995100809099 10393 71105 10044 21018 39951 40079 7//// 8////
2013-04-09T10:00611054.8-1.4995100809109 10393 61105 10048 21014 39948 40075 7//// 8////
2013-04-09T11:00611055.9-0.6994100709119 10393 61105 10059 21006 39944 40071 7//// 8////
2013-04-09T12:00611056.0-0.3994100709129 10393 61105 10060 21003 39943 40070 7//// 8////
2013-04-09T13:00610056.50.2994100609139 10393 61005 10065 20002 39938 40064 7//// 8////
2013-04-09T14:00710056.20.4994100652209149 10393 71005 10062 20004 39935 40061 70522 8////
2013-04-09T15:00710055.70.4993100652209159 10393 71005 10057 20004 39933 40060 70522 8////
2013-04-09T16:00810055.40.7994100652209169 10393 81005 10054 20007 39935 40062 70522 8////
2013-04-09T17:00810054.30.4994100652209179 10393 81005 10043 20004 39935 40062 70522 8////
2013-04-09T18:00810043.60.89941006102209189 10393 81004 10036 20008 39936 40064 71022 8////
2013-04-09T19:00810053.50.99941007102209199 10393 81005 10035 20009 39939 40067 71022 8////
2013-04-09T20:00810053.41.19941007102209209 10393 81005 10034 20011 39938 40066 71022 8////
2013-04-09T21:00811043.41.29941006102209219 10393 81104 10034 20012 39936 40064 71022 8////
2013-04-09T22:00811053.01.19931006102209229 10393 81105 10030 20011 39934 40062 71022 8////
2013-04-09T23:00811043.31.49931006102209239 10393 81104 10033 20014 39933 40061 71022 8////
2013-04-10T00:00811043.01.29931006102210009 10393 81104 10030 20012 39929 40057 71022 8////
2013-04-10T01:00810043.01.39921005102210019 10393 81004 10030 20013 39925 40053 71022 8////
2013-04-10T02:00810032.51.19921005102210029 10393 81003 10025 20011 39925 40053 71022 8////
2013-04-10T03:0089032.61.29921005102210039 10393 80903 10026 20012 39924 40052 71022 8////
2013-04-10T04:00810032.81.49921005102210049 10393 81003 10028 20014 39925 40053 71022 8////
2013-04-10T05:00810032.81.49931006102210059 10393 81003 10028 20014 39929 40057 71022 8////
2013-04-10T06:0089033.11.49931006102210069 10393 80903 10031 20014 39930 40058 71022 8////
2013-04-10T07:00810043.51.59931006102210079 10393 81004 10035 20015 39933 40061 71022 8////
2013-04-10T08:00811043.71.59941006102210089 10393 81104 10037 20015 39937 40065 71022 8////
2013-04-10T09:00810034.01.59941007102210099 10393 81003 10040 20015 39941 40068 71022 8////
2013-04-10T10:00811034.71.79941007102210109 10393 81103 10047 20017 39942 40069 71022 8////
2013-04-10T11:00811035.62.4994100752210119 10393 81103 10056 20024 39942 40069 70522 8////
2013-04-10T12:00812046.52.7994100752210129 10393 81204 10065 20027 39944 40070 70522 8////
2013-04-10T13:00811036.52.8995100752210139 10393 81103 10065 20028 39946 40072 70522 8////
2013-04-10T14:00811046.92.6994100752210149 10393 81104 10069 20026 39945 40071 70522 8////
2013-04-10T15:00811036.82.8995100752210159 10393 81103 10068 20028 39947 40073 70522 8////
2013-04-10T16:00811036.93.49951007606210169 10393 81103 10069 20034 39948 40074 76062 8////
2013-04-10T17:00812036.53.49951008606610179 10393 81203 10065 20034 39951 40077 76066 8////
2013-04-10T18:00712035.73.49951008606210189 10393 71203 10057 20034 39953 40080 76062 8////
2013-04-10T19:00811035.33.49961008212210199 10393 81103 10053 20034 39956 40083 72122 8////
2013-04-10T20:00811044.93.49961008616210209 10393 81104 10049 20034 39956 40083 76162 8////
2013-04-10T21:00811034.73.49961008606210219 10393 81103 10047 20034 39956 40083 76062 8////
2013-04-10T22:00811034.73.69951008212210229 10393 81103 10047 20036 39954 40081 72122 8////
2013-04-10T23:00812034.63.79951008212210239 10393 81203 10046 20037 39952 40079 72122 8////
2013-04-11T00:00813034.53.89951008106211009 10393 81303 10045 20038 39949 40076 71062 8////
2013-04-11T01:00814024.53.99941007102211019 10393 81402 10045 20039 39945 40072 71022 8////
2013-04-11T02:00817024.94.59941007212211029 10393 81702 10049 20045 39943 40070 72122 8////
2013-04-11T03:00719025.24.79941007216211039 10393 71902 10052 20047 39941 40068 72162 8////
2013-04-11T04:00420034.74.29941007101111049 10393 42003 10047 20042 39940 40067 71011 8////
2013-04-11T05:00518024.54.59941006101111059 10393 51802 10045 20045 39938 40065 71011 8////
2013-04-11T06:00616024.54.59941006286111069 10393 61602 10045 20045 39936 40063 72861 8////
2013-04-11T07:00717026.65.49931006102211079 10393 71702 10066 20054 39933 40059 71022 8////
2013-04-11T08:00717028.15.89931006102211089 10393 71702 10081 20058 39930 40055 71022 8////
2013-04-11T09:00816039.45.7992100552211099 10393 81603 10094 20057 39925 40050 70522 8////
2013-04-11T10:00816039.86.09921004616211109 10393 81603 10098 20060 39921 40045 76162 8////
2013-04-11T11:00816049.86.59911003616611119 10393 81604 10098 20065 39910 40034 76166 8////
2013-04-11T12:008170410.06.99901003606211129 10393 81704 10100 20069 39904 40028 76062 8////
2013-04-11T13:00815049.48.19901002216611139 10393 81504 10094 20081 39898 40022 72166 8////
2013-04-11T14:008160410.28.0989100211149 10393 81604 10102 20080 39892 40016 7//// 8////
2013-04-11T15:005160411.98.69891001256211159 10393 51604 10119 20086 39886 40009 72562 8////
2013-04-11T16:007160212.09.09881001252211169 10393 71602 10120 20090 39883 40006 72522 8////
2013-04-11T17:005170313.18.79881000252211179 10393 51703 10131 20087 39879 40001 72522 8////
2013-04-11T18:006160211.68.2988100038611189 10393 61602 10116 20082 39877 40000 70386 8////
2013-04-11T19:006180310.99.09881001252211199 10393 61803 10109 20090 39883 40006 72522 8////
2013-04-11T20:00716029.99.0988100111209 10393 71602 10099 20090 39883 40007 7//// 8////
2013-04-11T21:00816039.79.09881000608211219 10393 81603 10097 20090 39879 40003 76082 8////
2013-04-11T22:00715039.28.39881000212211229 10393 71503 10092 20083 39878 40002 72122 8////
2013-04-11T23:00615038.98.1988100011239 10393 61503 10089 20081 39875 49999 7//// 8////
2013-04-12T00:00615038.27.598799938612009 10393 61503 10082 20075 39869 49993 70386 8////
2013-04-12T01:00714038.07.498699912019 10393 71403 10080 20074 39864 49989 7//// 8////
2013-04-12T02:00815038.37.7986998612212029 10393 81503 10083 20077 39861 49985 76122 8////
2013-04-12T03:00816038.47.9986998616212039 10393 81603 10084 20079 39859 49983 76162 8////
2013-04-12T04:00815038.88.5985998656612049 10393 81503 10088 20085 39852 49976 76566 8////
2013-04-12T05:00917029.29.1985997636412059 10393 91702 10092 20091 39850 49974 76364 8////
2013-04-12T06:009210310.09.9985997616412069 10393 92103 10100 20099 39850 49973 76164 8////
2013-04-12T07:009240310.310.2985997636412079 10393 92403 10103 20102 39851 49974 76364 8////
2013-04-12T08:00830049.89.6986998616412089 10393 83004 10098 20096 39857 49981 76164 8////
2013-04-12T09:00829039.59.5987999636412099 10393 82903 10095 20095 39868 49992 76364 8////
2013-04-12T10:00827049.99.49881000636612109 10393 82704 10099 20094 39880 40004 76366 8////
2013-04-12T11:00828049.78.89891002616612119 10393 82804 10097 20088 39892 40016 76166 8////
2013-04-12T12:008270610.38.79901002216412129 10393 82706 10103 20087 39897 40021 72164 8////
2013-04-12T13:008270610.47.69901003602212139 10393 82706 10104 20076 39903 40027 76022 8////
2013-04-12T14:007270811.35.99911003212212149 10393 72708 10113 20059 39906 40030 72122 8////
2013-04-12T15:006260512.26.6991100436212159 10393 62605 10122 20066 39913 40036 70362 8////
2013-04-12T16:006250511.95.9992100412169 10393 62505 10119 20059 39916 40039 7//// 8////
2013-04-12T17:006240511.85.8992100412179 10393 62405 10118 20058 39917 40041 7//// 8////
2013-04-12T18:005220311.06.2992100416212189 10393 52203 10110 20062 39920 40044 70162 8////
2013-04-12T19:003200310.16.5993100512199 10393 32003 10101 20065 39928 40052 7//// 8////
2013-04-12T20:00221049.56.4993100612209 10393 22104 10095 20064 39931 40056 7//// 8////
2013-04-12T21:00619038.96.0993100612219 10393 61903 10089 20060 39932 40057 7//// 8////
2013-04-12T22:00717038.05.9993100612229 10393 71703 10080 20059 39933 40058 7//// 8////
2013-04-12T23:00720038.45.6994100612239 10393 72003 10084 20056 39936 40061 7//// 8////
2013-04-13T00:00021058.75.2994100613009 10393 02105 10087 20052 39937 40062 7//// 8////
2013-04-13T01:00022058.04.9994100713019 10393 02205 10080 20049 39943 40069 7//// 8////
2013-04-13T02:00022057.34.5995100813029 10393 02205 10073 20045 39950 40076 7//// 8////
2013-04-13T03:00322036.64.4995100813039 10393 32203 10066 20044 39954 40080 7//// 8////
2013-04-13T04:00623057.24.7996100813049 10393 62305 10072 20047 39959 40085 7//// 8////
2013-04-13T05:00723047.24.9997100913059 10393 72304 10072 20049 39966 40092 7//// 8////
2013-04-13T06:00721038.05.3997101013069 10393 72103 10080 20053 39974 40100 7//// 8////
2013-04-13T07:00823068.85.79981011212213079 10393 82306 10088 20057 39981 40107 72122 8////
2013-04-13T08:007230610.36.1999101113089 10393 72306 10103 20061 39986 40111 7//// 8////
2013-04-13T09:008240811.35.29991012256213099 10393 82408 10113 20052 39992 40117 72562 8////
2013-04-13T10:007260611.64.61000101213109 10393 72606 10116 20046 39999 40124 7//// 8////
2013-04-13T11:008240810.95.210011014802213119 10393 82408 10109 20052 30011 40136 78022 8////
2013-04-13T12:006260812.43.710021014258613129 10393 62608 10124 20037 30016 40141 72586 8////
2013-04-13T13:007270812.53.11002101513139 10393 72708 10125 20031 30024 40149 7//// 8////
2013-04-13T14:007270712.33.31003101613149 10393 72707 10123 20033 30031 40156 7//// 8////
2013-04-13T15:006290612.73.11004101613159 10393 62906 10127 20031 30038 40163 7//// 8////
2013-04-13T16:006260512.73.81004101713169 10393 62605 10127 20038 30044 40169 7//// 8////
2013-04-13T17:006230411.56.21005101813179 10393 62304 10115 20062 30052 40177 7//// 8////
2013-04-13T18:005240310.55.41006101913189 10393 52403 10105 20054 30063 40189 7//// 8////
2013-04-13T19:00326049.44.61008102013199 10393 32604 10094 20046 30077 40204 7//// 8////
2013-04-13T20:00029037.84.21008102113209 10393 02903 10078 20042 30085 40212 7//// 8////
2013-04-13T21:00026036.84.51009102213219 10393 02603 10068 20045 30093 40221 7//// 8////
2013-04-13T22:00026025.54.01010102313229 10393 02602 10055 20040 30101 40230 7//// 8////
2013-04-13T23:00027035.63.91011102413239 10393 02703 10056 20039 30108 40237 7//// 8////
2013-04-14T00:00028024.93.51011102414009 10393 02802 10049 20035 30113 40242 7//// 8////
2013-04-14T01:00029024.83.71012102414019 10393 02902 10048 20037 30116 40245 7//// 8////
2013-04-14T02:00025024.03.41012102514029 10393 02502 10040 20034 30122 40252 7//// 8////
2013-04-14T03:00032014.53.91012102514039 10393 03201 10045 20039 30124 40254 7//// 8////
2013-04-14T04:00013012.62.110131026100014049 10393 01301 10026 20021 30126 40256 71000 8////
2013-04-14T05:00414023.53.510131026110014059 10393 41402 10035 20035 30130 40260 71100 8////
2013-04-14T06:00114024.53.910131026100014069 10393 11402 10045 20039 30133 40263 71000 8////
2013-04-14T07:00115027.55.21014102614079 10393 11502 10075 20052 30137 40265 7//// 8////
2013-04-14T08:00216039.66.21014102714089 10393 21603 10096 20062 30141 40268 7//// 8////
2013-04-14T09:003160212.06.01014102714099 10393 31602 10120 20060 30143 40269 7//// 8////
2013-04-14T10:004170314.66.21014102714109 10393 41703 10146 20062 30144 40269 7//// 8////
2013-04-14T11:006150314.95.31014102714119 10393 61503 10149 20053 30143 40268 7//// 8////
2013-04-14T12:007160315.74.71014102614129 10393 71603 10157 20047 30140 40265 7//// 8////
2013-04-14T13:007190415.93.81014102614139 10393 71904 10159 20038 30138 40263 7//// 8////
2013-04-14T14:006190316.64.11014102614149 10393 61903 10166 20041 30136 40260 7//// 8////
2013-04-14T15:005210416.75.51013102614159 10393 52104 10167 20055 30133 40257 7//// 8////
2013-04-14T16:004190316.85.31013102614169 10393 41903 10168 20053 30133 40257 7//// 8////
2013-04-14T17:004190216.56.11013102614179 10393 41902 10165 20061 30132 40256 7//// 8////
2013-04-14T18:006140213.26.71013102614189 10393 61402 10132 20067 30132 40258 7//// 8////
2013-04-14T19:006140212.35.81013102614199 10393 61402 10123 20058 30134 40260 7//// 8////
2013-04-14T20:004130211.75.51014102614209 10393 41302 10117 20055 30135 40261 7//// 8////
2013-04-14T21:002120311.95.51013102614219 10393 21203 10119 20055 30131 40257 7//// 8////
2013-04-14T22:000130310.45.51013102614229 10393 01303 10104 20055 30129 40256 7//// 8////
2013-04-14T23:000120410.05.31013102614239 10393 01204 10100 20053 30129 40256 7//// 8////
2013-04-15T00:000120410.34.71013102615009 10393 01204 10103 20047 30129 40256 7//// 8////
2013-04-15T01:00012049.44.21013102515019 10393 01204 10094 20042 30126 40253 7//// 8////
2013-04-15T02:00013048.14.21012102515029 10393 01304 10081 20042 30123 40251 7//// 8////
2013-04-15T03:00013047.84.11012102515039 10393 01304 10078 20041 30121 40249 7//// 8////
2013-04-15T04:00312047.83.81012102515049 10393 31204 10078 20038 30119 40247 7//// 8////
2013-04-15T05:00513047.84.01012102415059 10393 51304 10078 20040 30117 40245 7//// 8////
2013-04-15T06:00413049.74.91012102415069 10393 41304 10097 20049 30116 40243 7//// 8////
2013-04-15T07:003150412.15.41012102415079 10393 31504 10121 20054 30115 40241 7//// 8////
2013-04-15T08:003160414.16.31011102415089 10393 31604 10141 20063 30112 40237 7//// 8////
2013-04-15T09:004160416.36.31010102315099 10393 41604 10163 20063 30105 40229 7//// 8////
2013-04-15T10:003160518.16.41010102215109 10393 31605 10181 20064 30101 40224 7//// 8////
2013-04-15T11:004150519.86.31010102215119 10393 41505 10198 20063 30096 40218 7//// 8////
2013-04-15T12:006160419.96.41009102115129 10393 61604 10199 20064 30092 40214 7//// 8////
2013-04-15T13:006160420.06.71009102115139 10393 61604 10200 20067 30087 40209 7//// 8////
2013-04-15T14:005160320.96.31008102115149 10393 51603 10209 20063 30084 40206 7//// 8////
2013-04-15T15:006150420.76.31008102015159 10393 61504 10207 20063 30078 40200 7//// 8////
2013-04-15T16:006150420.76.11007102015169 10393 61504 10207 20061 30073 40195 7//// 8////
2013-04-15T17:007170219.36.71008102015179 10393 71702 10193 20067 30075 40197 7//// 8////
2013-04-15T18:007150317.87.01007102015189 10393 71503 10178 20070 30074 40197 7//// 8////
2013-04-15T19:007150316.66.41007102015199 10393 71503 10166 20064 30074 40197 7//// 8////
2013-04-15T20:007150316.15.51007102015209 10393 71503 10161 20055 30072 40196 7//// 8////
2013-04-15T21:007130414.76.01007101915219 10393 71304 10147 20060 30067 40191 7//// 8////
2013-04-15T22:007130414.46.11006101915229 10393 71304 10144 20061 30065 40189 7//// 8////
2013-04-15T23:007130413.95.71006101915239 10393 71304 10139 20057 30065 40189 7//// 8////
2013-04-16T00:007130413.25.51006101916009 10393 71304 10132 20055 30063 40188 7//// 8////
2013-04-16T01:007140312.65.51006101916019 10393 71403 10126 20055 30062 40187 7//// 8////
2013-04-16T02:007130312.94.61006101816029 10393 71303 10129 20046 30060 40185 7//// 8////
2013-04-16T03:007140312.24.71006101816039 10393 71403 10122 20047 30056 40181 7//// 8////
2013-04-16T04:004140311.63.81006101816049 10393 41403 10116 20038 30055 40180 7//// 8////
2013-04-16T05:003150310.83.510061018140016059 10393 31503 10108 20035 30057 40183 71400 8////
2013-04-16T06:003150312.94.01006101816069 10393 31503 10129 20040 30059 40184 7//// 8////
2013-04-16T07:004180214.35.31006101916079 10393 41802 10143 20053 30063 40187 7//// 8////
2013-04-16T08:007220315.25.71006101916089 10393 72203 10152 20057 30064 40188 7//// 8////
2013-04-16T09:006190316.56.61006101816099 10393 61903 10165 20066 30062 40185 7//// 8////
2013-04-16T10:007190317.08.71006101916109 10393 71903 10170 20087 30063 40186 7//// 8////
2013-04-16T11:007210317.79.410061018812216119 10393 72103 10177 20094 30061 40184 78122 8////
2013-04-16T12:007240316.712.310061018258116129 10393 72403 10167 20123 30062 40185 72581 8////
2013-04-16T13:007240317.712.410061018602216139 10393 72403 10177 20124 30061 40184 76022 8////
2013-04-16T14:007220319.412.310061018212216149 10393 72203 10194 20123 30058 40180 72122 8////
2013-04-16T15:007220318.911.91006101836216159 10393 72203 10189 20119 30057 40179 70362 8////
2013-04-16T16:007220219.212.01006101816169 10393 72202 10192 20120 30057 40179 7//// 8////
2013-04-16T17:007160217.710.31005101816179 10393 71602 10177 20103 30054 40177 7//// 8////
2013-04-16T18:007160215.810.11006101836216189 10393 71602 10158 20101 30059 40182 70362 8////
2013-04-16T19:007160214.89.31006101916199 10393 71602 10148 20093 30065 40189 7//// 8////
2013-04-16T20:008150214.68.91007101916209 10393 81502 10146 20089 30067 40191 7//// 8////
2013-04-16T21:008190313.711.010071019802216219 10393 81903 10137 20110 30068 40192 78022 8////
2013-04-16T22:008160313.211.210071019252216229 10393 81603 10132 20112 30069 40194 72522 8////
2013-04-16T23:008190313.611.61007101916239 10393 81903 10136 20116 30070 40194 7//// 8////
2013-04-17T00:008180313.311.410071020218217009 10393 81803 10133 20114 30071 40196 72182 8////
2013-04-17T01:008210213.310.81007102017019 10393 82102 10133 20108 30070 40195 7//// 8////
2013-04-17T02:008270212.810.81007102017029 10393 82702 10128 20108 30074 40199 7//// 8////
2013-04-17T03:008300212.410.91008102017039 10393 83002 10124 20109 30076 40201 7//// 8////
2013-04-17T04:008310311.710.610081020102217049 10393 83103 10117 20106 30080 40205 71022 8////
2013-04-17T05:007330211.510.910091021102217059 10393 73302 10115 20109 30087 40213 71022 8////
2013-04-17T06:007340212.711.21010102217069 10393 73402 10127 20112 30095 40220 7//// 8////
2013-04-17T07:00710213.810.41010102317079 10393 70102 10138 20104 30101 40226 7//// 8////
2013-04-17T08:00650114.99.31010102217089 10393 60501 10149 20093 30100 40224 7//// 8////
2013-04-17T09:005120116.69.51010102217099 10393 51201 10166 20095 30101 40225 7//// 8////
2013-04-17T10:006270217.49.41010102317109 10393 62702 10174 20094 30103 40226 7//// 8////
2013-04-17T11:007160118.69.01010102217119 10393 71601 10186 20090 30098 40221 7//// 8////
2013-04-17T12:007260219.68.81010102217129 10393 72602 10196 20088 30097 40219 7//// 8////
2013-04-17T13:006300219.28.81009102217139 10393 63002 10192 20088 30094 40216 7//// 8////
2013-04-17T14:007310219.78.41009102117149 10393 73102 10197 20084 30089 40211 7//// 8////
2013-04-17T15:007340119.78.21008102117159 10393 73401 10197 20082 30085 40207 7//// 8////
2013-04-17T16:005200219.97.91008102017169 10393 52002 10199 20079 30081 40203 7//// 8////
2013-04-17T17:007210219.49.01008102017179 10393 72102 10194 20090 30079 40201 7//// 8////
2013-04-17T18:007180217.810.01008102017189 10393 71802 10178 20100 30076 40199 7//// 8////
2013-04-17T19:003190216.49.21008102017199 10393 31902 10164 20092 30078 40201 7//// 8////
2013-04-17T20:005150215.48.91007102017209 10393 51502 10154 20089 30074 40198 7//// 8////
2013-04-17T21:005150215.48.31007101917219 10393 51502 10154 20083 30068 40192 7//// 8////
2013-04-17T22:006140314.88.61006101917229 10393 61403 10148 20086 30065 40189 7//// 8////
2013-04-17T23:001150313.58.21006101917239 10393 11503 10135 20082 30061 40186 7//// 8////
2013-04-18T00:002150312.47.91006101818009 10393 21503 10124 20079 30055 40180 7//// 8////
2013-04-18T01:001160312.97.61005101818019 10393 11603 10129 20076 30051 40176 7//// 8////
2013-04-18T02:001150311.87.71004101718029 10393 11503 10118 20077 30045 40170 7//// 8////
2013-04-18T03:002160311.47.81004101618039 10393 21603 10114 20078 30040 40165 7//// 8////
2013-04-18T04:003150311.18.01003101618049 10393 31503 10111 20080 30032 40157 7//// 8////
2013-04-18T05:005160311.58.41003101518059 10393 51603 10115 20084 30028 40153 7//// 8////
2013-04-18T06:007160312.69.31002101518069 10393 71603 10126 20093 30024 40148 7//// 8////
2013-04-18T07:005170315.710.41002101418079 10393 51703 10157 20104 30020 40143 7//// 8////
2013-04-18T08:005180419.011.01001101418089 10393 51804 10190 20110 30014 40135 7//// 8////
2013-04-18T09:005200621.610.91001101318099 10393 52006 10216 20109 30006 40126 7//// 8////
2013-04-18T10:005220722.49.51000101218109 10393 52207 10224 20095 30005 40125 7//// 8////
2013-04-18T11:005220724.29.61000101218119 10393 52207 10242 20096 39999 40118 7//// 8////
2013-04-18T12:006210525.510.11000101118129 10393 62105 10255 20101 39995 40114 7//// 8////
2013-04-18T13:006230725.410.6999101118139 10393 62307 10254 20106 39993 40112 7//// 8////
2013-04-18T14:006230625.411.0999101118149 10393 62306 10254 20110 39991 40110 7//// 8////
2013-04-18T15:005250624.910.7999101118159 10393 52506 10249 20107 39989 40108 7//// 8////
2013-04-18T16:004240824.010.1999101118169 10393 42408 10240 20101 39994 40113 7//// 8////
2013-04-18T17:004310518.48.310001013250018179 10393 43105 10184 20083 30005 40127 72500 8////
2013-04-18T18:007300417.48.21001101338118189 10393 73004 10174 20082 30011 40133 70381 8////
2013-04-18T19:007300417.15.01002101418199 10393 73004 10171 20050 30022 40145 7//// 8////
2013-04-18T20:007310515.71.81003101518209 10393 73105 10157 20018 30027 40150 7//// 8////
2013-04-18T21:007310214.11.41004101618219 10393 73102 10141 20014 30036 40160 7//// 8////
2013-04-18T22:008310313.91.81004101718229 10393 83103 10139 20018 30043 40167 7//// 8////
2013-04-18T23:008300213.61.01005101718239 10393 83002 10136 20010 30049 40174 7//// 8////
2013-04-19T00:008300212.62.21005101819009 10393 83002 10126 20022 30051 40176 7//// 8////
2013-04-19T01:007260312.71.91005101819019 10393 72603 10127 20019 30052 40177 7//// 8////
2013-04-19T02:007280312.61.71006101819029 10393 72803 10126 20017 30057 40182 7//// 8////
2013-04-19T03:007280211.51.91006101819039 10393 72802 10115 20019 30058 40184 7//// 8////
2013-04-19T04:007270411.11.91006101919049 10393 72704 10111 20019 30062 40188 7//// 8////
2013-04-19T05:006260411.31.81007101919059 10393 62604 10113 20018 30066 40192 7//// 8////
2013-04-19T06:006260212.01.61007101919069 10393 62602 10120 20016 30068 40193 7//// 8////
2013-04-19T07:007260313.02.21007102019079 10393 72603 10130 20022 30072 40197 7//// 8////
2013-04-19T08:007240514.50.71007102019089 10393 72405 10145 20007 30072 40196 7//// 8////
2013-04-19T09:007260515.31.31007102019099 10393 72605 10153 20013 30073 40197 7//// 8////
2013-04-19T10:007300414.82.21008102019109 10393 73004 10148 20022 30075 40199 7//// 8////
2013-04-19T11:007260415.61.21007102019119 10393 72604 10156 20012 30073 40197 7//// 8////
2013-04-19T12:007290515.71.81007102019129 10393 72905 10157 20018 30074 40198 7//// 8////
2013-04-19T13:007300515.82.31008102019139 10393 73005 10158 20023 30075 40199 7//// 8////
2013-04-19T14:007290615.90.31008102019149 10393 72906 10159 20003 30075 40199 7//// 8////
2013-04-19T15:006300515.80.81008102019159 10393 63005 10158 20008 30077 40201 7//// 8////
2013-04-19T16:006300514.50.91008102119169 10393 63005 10145 20009 30084 40209 7//// 8////
2013-04-19T17:007310413.32.01009102119179 10393 73104 10133 20020 30088 40213 7//// 8////
2013-04-19T18:008300312.61.01009102219189 10393 83003 10126 20010 30094 40220 7//// 8////
2013-04-19T19:008310311.01.81010102319199 10393 83103 10110 20018 30101 40227 7//// 8////
2013-04-19T20:00731039.71.31010102319209 10393 73103 10097 20013 30104 40231 7//// 8////
2013-04-19T21:00834039.11.81011102419219 10393 83403 10091 20018 30111 40238 7//// 8////
2013-04-19T22:00834027.42.51012102519229 10393 83402 10074 20025 30119 40247 7//// 8////
2013-04-19T23:00834027.53.11012102519239 10393 83402 10075 20031 30123 40251 7//// 8////
2013-04-20T00:00834037.33.51013102620009 10393 83403 10073 20035 30129 40257 7//// 8////
2013-04-20T01:00636036.53.11014102620019 10393 63603 10065 20031 30135 40264 7//// 8////
2013-04-20T02:00636026.12.21014102720029 10393 63602 10061 20022 30139 40268 7//// 8////
2013-04-20T03:00636024.71.91014102720039 10393 63602 10047 20019 30144 40274 7//// 8////
2013-04-20T04:00732014.21.81015102820049 10393 73201 10042 20018 30149 40279 7//// 8////
2013-04-20T05:00533024.22.31016102920059 10393 53302 10042 20023 30156 40286 7//// 8////
2013-04-20T06:00735035.73.01016102920069 10393 73503 10057 20030 30162 40291 7//// 8////
2013-04-20T07:0062036.51.71016102920079 10393 60203 10065 20017 30163 40292 7//// 8////
2013-04-20T08:00734027.41.41017103020089 10393 73402 10074 20014 30166 40295 7//// 8////
2013-04-20T09:0072038.80.91017103020099 10393 70203 10088 20009 30167 40295 7//// 8////
2013-04-20T10:0071028.6-0.51017103020109 10393 70102 10086 21005 30167 40295 7//// 8////
2013-04-20T11:006350210.50.11016102920119 10393 63502 10105 20001 30162 40289 7//// 8////
2013-04-20T12:00730210.90.71016102920129 10393 70302 10109 20007 30163 40290 7//// 8////
2013-04-20T13:00720310.9-2.01016102920139 10393 70203 10109 21020 30161 40288 7//// 8////
2013-04-20T14:007360311.3-0.51016102820149 10393 73603 10113 21005 30158 40285 7//// 8////
2013-04-20T15:00750311.6-1.01016102820159 10393 70503 10116 21010 30155 40282 7//// 8////
2013-04-20T16:00730211.1-0.91015102820169 10393 70302 10111 21009 30152 40279 7//// 8////
2013-04-20T17:00740311.10.11015102820179 10393 70403 10111 20001 30149 40276 7//// 8////
2013-04-20T18:00630210.00.21015102820189 10393 60302 10100 20002 30148 40275 7//// 8////
2013-04-20T19:0043037.40.41015102820199 10393 40303 10074 20004 30147 40276 7//// 8////
2013-04-20T20:0033027.5-0.11015102820209 10393 30302 10075 21001 30150 40279 7//// 8////
2013-04-20T21:0043037.70.01015102820219 10393 40303 10077 20000 30149 40277 7//// 8////
2013-04-20T22:0043037.51.41015102820229 10393 40303 10075 20014 30147 40275 7//// 8////
2013-04-20T23:0044046.81.81014102720239 10393 40404 10068 20018 30144 40273 7//// 8////
2013-04-21T00:0054046.21.91014102721009 10393 50404 10062 20019 30142 40271 7//// 8////
2013-04-21T01:0036046.31.31014102721019 10393 30604 10063 20013 30137 40266 7//// 8////
2013-04-21T02:0017035.41.01014102621029 10393 10703 10054 20010 30135 40264 7//// 8////
2013-04-21T03:0018044.70.91013102621039 10393 10804 10047 20009 30133 40263 7//// 8////
2013-04-21T04:0038034.41.01013102621049 10393 30803 10044 20010 30128 40258 7//// 8////
2013-04-21T05:0048034.51.11013102621059 10393 40803 10045 20011 30127 40257 7//// 8////
2013-04-21T06:00510045.91.71013102621069 10393 51004 10059 20017 30126 40255 7//// 8////
2013-04-21T07:00510048.02.01012102521079 10393 51004 10080 20020 30123 40251 7//// 8////
2013-04-21T08:00590410.40.31012102421089 10393 50904 10104 20003 30117 40244 7//// 8////
2013-04-21T09:00480411.7-3.21011102421099 10393 40804 10117 21032 30111 40237 7//// 8////
2013-04-21T10:004100512.9-1.41010102321109 10393 41005 10129 21014 30104 40230 7//// 8////
2013-04-21T11:004100513.60.31009102221119 10393 41005 10136 20003 30094 40219 7//// 8////
2013-04-21T12:005110414.41.71008102121129 10393 51104 10144 20017 30085 40210 7//// 8////
2013-04-21T13:005100515.11.81008102021139 10393 51005 10151 20018 30076 40200 7//// 8////
2013-04-21T14:004120416.03.41006101921149 10393 41204 10160 20034 30065 40189 7//// 8////
2013-04-21T15:00090415.82.51006101821159 10393 00904 10158 20025 30057 40181 7//// 8////
2013-04-21T16:003100415.62.41005101721169 10393 31004 10156 20024 30049 40173 7//// 8////
2013-04-21T17:007100414.92.91004101721179 10393 71004 10149 20029 30044 40168 7//// 8////
2013-04-21T18:007100413.83.21004101621189 10393 71004 10138 20032 30041 40165 7//// 8////
2013-04-21T19:007100412.52.91004101721199 10393 71004 10125 20029 30041 40166 7//// 8////
2013-04-21T20:00690411.71.91004101621209 10393 60904 10117 20019 30039 40164 7//// 8////
2013-04-21T21:006100411.01.01004101621219 10393 61004 10110 20010 30036 40162 7//// 8////
2013-04-21T22:006100410.71.01003101621229 10393 61004 10107 20010 30032 40158 7//// 8////
2013-04-21T23:006100410.31.21003101621239 10393 61004 10103 20012 30029 40155 7//// 8////
2013-04-22T00:00711049.91.51002101522009 10393 71104 10099 20015 30023 40149 7//// 8////
2013-04-22T01:007110410.01.81002101422019 10393 71104 10100 20018 30018 40144 7//// 8////
2013-04-22T02:00712049.42.21002101422029 10393 71204 10094 20022 30015 40141 7//// 8////
2013-04-22T03:00512038.52.11001101422039 10393 51203 10085 20021 30012 40138 7//// 8////
2013-04-22T04:00613027.32.11001101422049 10393 61302 10073 20021 30013 40140 7//// 8////
2013-04-22T05:00712018.83.110011014252222059 10393 71201 10088 20031 30014 40140 72522 8////
2013-04-22T06:00515019.62.510021014258222069 10393 51501 10096 20025 30016 40142 72582 8////
2013-04-22T07:006180110.64.01002101422079 10393 61801 10106 20040 30019 40144 7//// 8////
2013-04-22T08:007170210.44.810021014802222089 10393 71702 10104 20048 30020 40145 78022 8////
2013-04-22T09:007230211.36.010021015258222099 10393 72302 10113 20060 30022 40147 72582 8////
2013-04-22T10:007300213.77.01002101422109 10393 73002 10137 20070 30020 40144 7//// 8////
2013-04-22T11:006300215.67.11002101422119 10393 63002 10156 20071 30019 40142 7//// 8////
2013-04-22T12:007310217.28.21002101438222129 10393 73102 10172 20082 30018 40140 70382 8////
2013-04-22T13:005300217.97.71002101422139 10393 53002 10179 20077 30017 40139 7//// 8////
2013-04-22T14:007160118.19.01001101422149 10393 71601 10181 20090 30014 40136 7//// 8////
2013-04-22T15:007230317.98.81001101322159 10393 72303 10179 20088 30012 40134 7//// 8////
2013-04-22T16:007180218.010.31001101322169 10393 71802 10180 20103 30011 40133 7//// 8////
2013-04-22T17:005300516.57.61002101422179 10393 53005 10165 20076 30016 40139 7//// 8////
2013-04-22T18:006300314.37.01002101522189 10393 63003 10143 20070 30023 40147 7//// 8////
2013-04-22T19:005300412.16.81003101522199 10393 53004 10121 20068 30026 40151 7//// 8////
2013-04-22T20:000290411.06.11003101622209 10393 02904 10110 20061 30030 40155 7//// 8////
2013-04-22T21:00030049.75.81004101622219 10393 03004 10097 20058 30036 40162 7//// 8////
2013-04-22T22:00328028.85.41004101722229 10393 32802 10088 20054 30040 40166 7//// 8////
2013-04-22T23:00725029.85.31004101722239 10393 72502 10098 20053 30040 40166 7//// 8////
2013-04-23T00:00823029.65.11004101723009 10393 82302 10096 20051 30040 40166 7//// 8////
2013-04-23T01:00826029.34.61004101723019 10393 82602 10093 20046 30041 40167 7//// 8////
2013-04-23T02:00822029.24.31004101723029 10393 82202 10092 20043 30040 40166 7//// 8////
2013-04-23T03:00819029.04.61004101623039 10393 81902 10090 20046 30036 40162 7//// 8////
2013-04-23T04:00722039.34.61004101723049 10393 72203 10093 20046 30040 40166 7//// 8////
2013-04-23T05:00718039.25.21004101623059 10393 71803 10092 20052 30037 40163 7//// 8////
2013-04-23T06:007200310.56.11004101623069 10393 72003 10105 20061 30039 40165 7//// 8////
2013-04-23T07:007230512.06.51004101623079 10393 72305 10120 20065 30040 40165 7//// 8////
2013-04-23T08:007240513.36.71005101723089 10393 72405 10133 20067 30046 40170 7//// 8////
2013-04-23T09:008240614.24.01005101723099 10393 82406 10142 20040 30048 40172 7//// 8////
2013-04-23T10:007240816.02.51005101723109 10393 72408 10160 20025 30048 40171 7//// 8////
2013-04-23T11:0052401016.80.11004101723119 10393 52410 10168 20001 30044 40167 7//// 8////
2013-04-23T12:002250917.70.31004101623129 10393 22509 10177 20003 30042 40165 7//// 8////
2013-04-23T13:002250819.02.61004101623139 10393 22508 10190 20026 30043 40165 7//// 8////
2013-04-23T14:006240817.94.71005101723149 10393 62408 10179 20047 30047 40170 7//// 8////
2013-04-23T15:007290716.56.21005101823159 10393 72907 10165 20062 30053 40176 7//// 8////
2013-04-23T16:007290515.96.81006101823169 10393 72905 10159 20068 30059 40183 7//// 8////
2013-04-23T17:005290515.67.51006101923179 10393 52905 10156 20075 30062 40186 7//// 8////
2013-04-23T18:006270615.17.11007101923189 10393 62706 10151 20071 30067 40191 7//// 8////
2013-04-23T19:006270414.47.11007102023199 10393 62704 10144 20071 30072 40196 7//// 8////
2013-04-23T20:007300413.77.61008102123209 10393 73004 10137 20076 30082 40207 7//// 8////
2013-04-23T21:007270413.26.91009102123219 10393 72704 10132 20069 30087 40212 7//// 8////
2013-04-23T22:004270412.17.21009102223229 10393 42704 10121 20072 30091 40217 7//// 8////
2013-04-23T23:000250310.66.71010102223239 10393 02503 10106 20067 30096 40222 7//// 8////
2013-04-24T00:000260310.26.61010102224009 10393 02603 10102 20066 30097 40223 7//// 8////
2013-04-24T01:00327038.96.31010102324019 10393 32703 10089 20063 30103 40230 7//// 8////
2013-04-24T02:00327049.26.71011102424029 10393 32704 10092 20067 30108 40235 7//// 8////
2013-04-24T03:00427037.66.11011102424039 10393 42703 10076 20061 30113 40241 7//// 8////
2013-04-24T04:00424026.75.810121025100024049 10393 42402 10067 20058 30118 40246 71000 8////
2013-04-24T05:00623027.16.210121025101124059 10393 62302 10071 20062 30121 40249 71011 8////
2013-04-24T06:00723028.96.81013102624069 10393 72302 10089 20068 30129 40256 7//// 8////
2013-04-24T07:007270210.35.31013102624079 10393 72702 10103 20053 30134 40261 7//// 8////
2013-04-24T08:007270311.44.91014102624089 10393 72703 10114 20049 30137 40264 7//// 8////
2013-04-24T09:007290412.24.21014102624099 10393 72904 10122 20042 30138 40264 7//// 8////
2013-04-24T10:007300414.06.31014102624109 10393 73004 10140 20063 30136 40261 7//// 8////
2013-04-24T11:007300315.15.91013102624119 10393 73003 10151 20059 30134 40259 7//// 8////
2013-04-24T12:005300315.65.21013102524129 10393 53003 10156 20052 30126 40251 7//// 8////
2013-04-24T13:004240616.45.91012102424139 10393 42406 10164 20059 30120 40244 7//// 8////
2013-04-24T14:006250517.86.81011102424149 10393 62505 10178 20068 30114 40237 7//// 8////
2013-04-24T15:006230518.07.11011102324159 10393 62305 10180 20071 30106 40229 7//// 8////
2013-04-24T16:005230618.47.01010102224169 10393 52306 10184 20070 30101 40224 7//// 8////
2013-04-24T17:003240418.27.31010102224179 10393 32404 10182 20073 30098 40221 7//// 8////
2013-04-24T18:002230316.88.01010102224189 10393 22303 10168 20080 30097 40221 7//// 8////
2013-04-24T19:002230315.27.91010102224199 10393 22303 10152 20079 30098 40222 7//// 8////
2013-04-24T20:002230314.17.61010102224209 10393 22303 10141 20076 30100 40225 7//// 8////
2013-04-24T21:003230313.67.41010102224219 10393 32303 10136 20074 30097 40222 7//// 8////
2013-04-24T22:003230313.17.41010102224229 10393 32303 10131 20074 30097 40222 7//// 8////
2013-04-24T23:005230312.87.51010102224239 10393 52303 10128 20075 30096 40221 7//// 8////
2013-04-25T00:007220312.37.51009102225009 10393 72203 10123 20075 30093 40218 7//// 8////
2013-04-25T01:007230411.97.51009102225019 10393 72304 10119 20075 30093 40219 7//// 8////
2013-04-25T02:006240311.67.61009102225029 10393 62403 10116 20076 30093 40219 7//// 8////
2013-04-25T03:005290310.17.11010102325039 10393 52903 10101 20071 30099 40226 7//// 8////
2013-04-25T04:007270210.97.91010102325049 10393 72702 10109 20079 30101 40227 7//// 8////
2013-04-25T05:007270312.08.61010102325059 10393 72703 10120 20086 30104 40230 7//// 8////
2013-04-25T06:007270313.09.31011102325069 10393 72703 10130 20093 30109 40234 7//// 8////
2013-04-25T07:007290313.99.71011102425079 10393 72903 10139 20097 30114 40239 7//// 8////
2013-04-25T08:007290315.09.71012102425089 10393 72903 10150 20097 30119 40244 7//// 8////
2013-04-25T09:007300315.810.61012102525099 10393 73003 10158 20106 30123 40247 7//// 8////
2013-04-25T10:007270216.110.01012102525109 10393 72702 10161 20100 30122 40246 7//// 8////
2013-04-25T11:007300216.610.41012102425119 10393 73002 10166 20104 30119 40243 7//// 8////
2013-04-25T12:007310417.710.810111024802225129 10393 73104 10177 20108 30114 40237 78022 8////
2013-04-25T13:006280417.810.110111023252225139 10393 62804 10178 20101 30110 40233 72522 8////
2013-04-25T14:006300318.310.51010102325149 10393 63003 10183 20105 30105 40228 7//// 8////
2013-04-25T15:005270318.810.21010102218225159 10393 52703 10188 20102 30099 40222 70182 8////
2013-04-25T16:003290219.39.41009102225169 10393 32902 10193 20094 30093 40215 7//// 8////
2013-04-25T17:002310219.49.71009102125179 10393 23102 10194 20097 30087 40209 7//// 8////
2013-04-25T18:00330117.49.91008102038125189 10393 30301 10174 20099 30080 40203 70381 8////
2013-04-25T19:00490216.110.01008102025199 10393 40902 10161 20100 30077 40201 7//// 8////
2013-04-25T20:004110316.19.81007102025209 10393 41103 10161 20098 30072 40195 7//// 8////
2013-04-25T21:007120315.410.11007101925219 10393 71203 10154 20101 30069 40193 7//// 8////
2013-04-25T22:007130314.410.31006101925229 10393 71303 10144 20103 30062 40186 7//// 8////
2013-04-25T23:007150313.710.31005101825239 10393 71503 10137 20103 30054 40178 7//// 8////
2013-04-26T00:007140313.810.21004101726009 10393 71403 10138 20102 30042 40166 7//// 8////
2013-04-26T01:007150314.010.61003101626019 10393 71503 10140 20106 30031 40155 7//// 8////
2013-04-26T02:005150313.610.61002101426029 10393 51503 10136 20106 30019 40143 7//// 8////
2013-04-26T03:004160312.510.31001101326039 10393 41603 10125 20103 30008 40132 7//// 8////
2013-04-26T04:002180412.19.91000101226049 10393 21804 10121 20099 30000 40124 7//// 8////
2013-04-26T05:001170311.99.8999101226059 10393 11703 10119 20098 39993 40117 7//// 8////
2013-04-26T06:003190214.110.0999101126069 10393 31902 10141 20100 39990 40113 7//// 8////
2013-04-26T07:003240417.19.8999101126079 10393 32404 10171 20098 39987 40109 7//// 8////
2013-04-26T08:004230419.69.7998101026089 10393 42304 10196 20097 39981 40102 7//// 8////
2013-04-26T09:003220321.19.5998101026099 10393 32203 10211 20095 39976 40096 7//// 8////
2013-04-26T10:006280322.59.6997100926109 10393 62803 10225 20096 39969 40089 7//// 8////
2013-04-26T11:003320223.210.4996100826119 10393 33202 10232 20104 39959 40078 7//// 8////
2013-04-26T12:006240223.69.8995100726129 10393 62402 10236 20098 39951 40070 7//// 8////
2013-04-26T13:006300223.09.9994100626139 10393 63002 10230 20099 39939 40058 7//// 8////
2013-04-26T14:007230322.58.69931005802226149 10393 72303 10225 20086 39932 40051 78022 8////
2013-04-26T15:006300222.09.29921004258226159 10393 63002 10220 20092 39924 40043 72582 8////
2013-04-26T16:008220122.79.59911003252226169 10393 82201 10227 20095 39911 40030 72522 8////
2013-04-26T17:008250221.710.49901002616226179 10393 82502 10217 20104 39905 40024 76162 8////
2013-04-26T18:008300416.013.29901003618626189 10393 83004 10160 20132 39905 40026 76186 8////
2013-04-26T19:008310214.912.79901002616626199 10393 83102 10149 20127 39901 40023 76166 8////
2013-04-26T20:008280415.212.09901002606626209 10393 82804 10152 20120 39900 40022 76066 8////
2013-04-26T21:008280313.712.59901002636626219 10393 82803 10137 20125 39895 40017 76366 8////
2013-04-26T22:008270413.512.59891001606626229 10393 82704 10135 20125 39891 40013 76066 8////
2013-04-26T23:008240413.312.79891002636626239 10393 82404 10133 20127 39893 40015 76366 8////
2013-04-27T00:008230413.213.09901002656227009 10393 82304 10132 20130 39895 40017 76562 8////
2013-04-27T01:00835058.68.09901002616627019 10393 83505 10086 20080 39900 40025 76166 8////
2013-04-27T02:00834037.46.99901003616627029 10393 83403 10074 20069 39904 40029 76166 8////
2013-04-27T03:00833037.36.89911003216627039 10393 83303 10073 20068 39907 40032 72166 8////
2013-04-27T04:00834037.26.6992100427049 10393 83403 10072 20066 39915 40041 7//// 8////
2013-04-27T05:00835047.06.4992100427059 10393 83504 10070 20064 39919 40045 7//// 8////
2013-04-27T06:00836036.95.8993100526227069 10393 83603 10069 20058 39928 40054 70262 8////
2013-04-27T07:00835026.75.9993100627079 10393 83502 10067 20059 39933 40059 7//// 8////
2013-04-27T08:0081037.65.7994100627089 10393 80103 10076 20057 39938 40064 7//// 8////
2013-04-27T09:00832026.95.59951008602227099 10393 83202 10069 20055 39951 40077 76022 8////
2013-04-27T10:00836037.76.39951008606627109 10393 83603 10077 20063 39954 40080 76066 8////
2013-04-27T11:0081038.35.99951008212227119 10393 80103 10083 20059 39954 40080 72122 8////
2013-04-27T12:00736039.06.89951008606227129 10393 73603 10090 20068 39954 40079 76062 8////
2013-04-27T13:0082028.75.29961008212227139 10393 80202 10087 20052 39957 40082 72122 8////
2013-04-27T14:0081048.65.49961008212227149 10393 80104 10086 20054 39958 40083 72122 8////
2013-04-27T15:0081038.65.49961008216227159 10393 80103 10086 20054 39958 40083 72162 8////
2013-04-27T16:0081048.45.19961008216227169 10393 80104 10084 20051 39957 40083 72162 8////
2013-04-27T17:0082037.64.99961009616227179 10393 80203 10076 20049 39963 40089 76162 8////
2013-04-27T18:0081027.25.59971009606227189 10393 80102 10072 20055 39966 40092 76062 8////
2013-04-27T19:00835026.85.89971010616627199 10393 83502 10068 20058 39974 40100 76166 8////
2013-04-27T20:00835026.14.59981010616627209 10393 83502 10061 20045 39978 40105 76166 8////
2013-04-27T21:00836025.73.99981010216227219 10393 83602 10057 20039 39976 40103 72162 8////
2013-04-27T22:00836025.83.09981011602227229 10393 83602 10058 20030 39980 40107 76022 8////
2013-04-27T23:0081025.63.09981011216227239 10393 80102 10056 20030 39981 40108 72162 8////
2013-04-28T00:0081024.73.39981011636228009 10393 80102 10047 20033 39982 40110 76362 8////
2013-04-28T01:00836024.82.89981011602228019 10393 83602 10048 20028 39982 40110 76022 8////
2013-04-28T02:00835024.83.79981011216628029 10393 83502 10048 20037 39985 40113 72166 8////
2013-04-28T03:00834024.84.09991012216228039 10393 83402 10048 20040 39987 40115 72162 8////
2013-04-28T04:00832025.04.4999101228049 10393 83202 10050 20044 39992 40120 7//// 8////
2013-04-28T05:00833025.64.910001012102228059 10393 83302 10056 20049 39995 40122 71022 8////
2013-04-28T06:00829026.25.110001013106228069 10393 82902 10062 20051 30005 40132 71062 8////
2013-04-28T07:00830036.85.010011014102228079 10393 83003 10068 20050 30012 40139 71022 8////
2013-04-28T08:00829027.45.11002101528089 10393 82902 10074 20051 30020 40147 7//// 8////
2013-04-28T09:00729028.35.01003101628099 10393 72902 10083 20050 30028 40155 7//// 8////
2013-04-28T10:00629029.85.31003101628109 10393 62902 10098 20053 30034 40160 7//// 8////
2013-04-28T11:006240210.63.61003101628119 10393 62402 10106 20036 30033 40159 7//// 8////
2013-04-28T12:007270211.42.21004101628129 10393 72702 10114 20022 30039 40164 7//// 8////
2013-04-28T13:007290212.11.01004101628139 10393 72902 10121 20010 30039 40164 7//// 8////
2013-04-28T14:004270213.22.31004101628149 10393 42702 10132 20023 30038 40163 7//// 8////
2013-04-28T15:002240213.1-0.71004101628159 10393 22402 10131 21007 30038 40163 7//// 8////
2013-04-28T16:002150213.10.71004101628169 10393 21502 10131 20007 30036 40161 7//// 8////
2013-04-28T17:001170212.70.41003101628179 10393 11702 10127 20004 30034 40159 7//// 8////
2013-04-28T18:002200211.72.11004101628189 10393 22002 10117 20021 30035 40160 7//// 8////
2013-04-28T19:005200210.33.31004101628199 10393 52002 10103 20033 30037 40163 7//// 8////
2013-04-28T20:00321039.53.61004101728209 10393 32103 10095 20036 30040 40166 7//// 8////
2013-04-28T21:00019028.33.91004101628219 10393 01902 10083 20039 30036 40163 7//// 8////
2013-04-28T22:00820028.54.71004101728229 10393 82002 10085 20047 30040 40167 7//// 8////
2013-04-28T23:00816028.05.01004101628239 10393 81602 10080 20050 30035 40162 7//// 8////
2013-04-29T00:00016027.14.91003101629009 10393 01602 10071 20049 30034 40161 7//// 8////
2013-04-29T01:00813027.75.01003101629019 10393 81302 10077 20050 30032 40159 7//// 8////
2013-04-29T02:00813037.35.31002101529029 10393 81303 10073 20053 30024 40151 7//// 8////
2013-04-29T03:00815027.15.31002101529039 10393 81502 10071 20053 30022 40149 7//// 8////
2013-04-29T04:00815027.25.61002101529049 10393 81502 10072 20056 30019 40146 7//// 8////
2013-04-29T05:00818027.45.710021015212229059 10393 81802 10074 20057 30020 40147 72122 8////
2013-04-29T06:00820028.26.310021015216129069 10393 82002 10082 20063 30021 40147 72161 8////
2013-04-29T07:00821029.76.710021015602229079 10393 82102 10097 20067 30020 40146 76022 8////
2013-04-29T08:008230411.06.310021015212229089 10393 82304 10110 20063 30021 40146 72122 8////
2013-04-29T09:008210411.66.11002101536229099 10393 82104 10116 20061 30022 40147 70362 8////
2013-04-29T10:007230612.66.31002101529109 10393 72306 10126 20063 30022 40147 7//// 8////
2013-04-29T11:008240612.36.21003101529119 10393 82406 10123 20062 30026 40151 7//// 8////
2013-04-29T12:008250612.07.21003101516229129 10393 82506 10120 20072 30027 40152 70162 8////
2013-04-29T13:005220614.26.61003101529139 10393 52206 10142 20066 30028 40152 7//// 8////
2013-04-29T14:006230613.95.51003101529149 10393 62306 10139 20055 30027 40151 7//// 8////
2013-04-29T15:005240715.05.61003101529159 10393 52407 10150 20056 30029 40153 7//// 8////
2013-04-29T16:005250614.33.51004101629169 10393 52506 10143 20035 30037 40161 7//// 8////
2013-04-29T17:005240513.94.31004101629179 10393 52405 10139 20043 30041 40165 7//// 8////
2013-04-29T18:004240413.24.21005101729189 10393 42404 10132 20042 30046 40171 7//// 8////
2013-04-29T19:006220311.64.41005101829199 10393 62203 10116 20044 30053 40178 7//// 8////
2013-04-29T20:006220310.74.51006101929209 10393 62203 10107 20045 30060 40186 7//// 8////
2013-04-29T21:00428038.94.31007101929219 10393 42803 10089 20043 30066 40193 7//// 8////
2013-04-29T22:00828028.84.61007102029229 10393 82802 10088 20046 30072 40199 7//// 8////
2013-04-29T23:00830039.54.21007102029239 10393 83003 10095 20042 30074 40201 7//// 8////
2013-04-30T00:00731049.23.81007102030009 10393 73104 10092 20038 30074 40201 7//// 8////
2013-04-30T01:00331038.13.31008102030019 10393 33103 10081 20033 30078 40205 7//// 8////
2013-04-30T02:00630027.03.11008102130029 10393 63002 10070 20031 30082 40210 7//// 8////
2013-04-30T03:00520025.52.61009102230039 10393 52002 10055 20026 30087 40216 7//// 8////
2013-04-30T04:00723026.13.31009102230049 10393 72302 10061 20033 30090 40218 7//// 8////
2013-04-30T05:00728026.84.21009102230059 10393 72802 10068 20042 30093 40221 7//// 8////
2013-04-30T06:00826018.04.41009102230069 10393 82601 10080 20044 30094 40222 7//// 8////
2013-04-30T07:00831029.44.71010102230079 10393 83102 10094 20047 30097 40224 7//// 8////
2013-04-30T08:007330110.34.21010102330089 10393 73301 10103 20042 30101 40228 7//// 8////
2013-04-30T09:007300211.7-0.11010102330099 10393 73002 10117 21001 30101 40227 7//// 8////
2013-04-30T10:007330213.12.11010102330109 10393 73302 10131 20021 30101 40226 7//// 8////
2013-04-30T11:008240113.12.41010102230119 10393 82401 10131 20024 30097 40222 7//// 8////
2013-04-30T12:008180113.24.31010102230129 10393 81801 10132 20043 30095 40220 7//// 8////
2013-04-30T13:008260213.72.11009102230139 10393 82602 10137 20021 30093 40218 7//// 8////
2013-04-30T14:008310113.72.61009102230149 10393 83101 10137 20026 30091 40216 7//// 8////
2013-04-30T15:008250213.52.11009102230159 10393 82502 10135 20021 30090 40215 7//// 8////
2013-04-30T16:00890113.43.91009102230169 10393 80901 10134 20039 30090 40215 7//// 8////
2013-04-30T17:008140212.95.51009102230179 10393 81402 10129 20055 30092 40217 7//// 8////
2013-04-30T18:008190112.15.81010102230189 10393 81901 10121 20058 30095 40221 7//// 8////
2013-04-30T19:008220111.65.61010102230199 10393 82201 10116 20056 30098 40224 7//// 8////
2013-04-30T20:008220211.45.61010102330209 10393 82202 10114 20056 30103 40229 7//// 8////
2013-04-30T21:008180210.76.01010102330219 10393 81802 10107 20060 30105 40231 7//// 8////
2013-04-30T22:008210210.35.91011102430229 10393 82102 10103 20059 30108 40235 7//// 8////
2013-04-30T23:007220210.05.71011102430239 10393 72202 10100 20057 30113 40240 7//// 8////